createdAt,value
2023-01-27T00:00:35.553Z,47.42
2023-01-27T00:03:02.085Z,47.90
2023-01-27T00:05:28.592Z,49.03
2023-01-27T00:07:58.442Z,45.03
2023-01-27T00:10:25.671Z,46.40
2023-01-27T00:13:10.774Z,48.42
2023-01-27T00:15:37.665Z,45.58
2023-01-27T00:18:04.473Z,46.40
2023-01-27T00:20:49.586Z,43.35
2023-01-27T00:23:37.139Z,45.97
2023-01-27T00:26:08.700Z,44.05
2023-01-27T00:28:37.372Z,45.60
2023-01-27T00:31:06.040Z,42.47
2023-01-27T00:33:32.740Z,43.67
2023-01-27T00:36:06.994Z,41.33
2023-01-27T00:38:41.085Z,41.65
2023-01-27T00:41:20.554Z,39.67
2023-01-27T00:43:48.872Z,39.67
2023-01-27T00:46:16.876Z,38.53
2023-01-27T00:48:43.895Z,35.40
2023-01-27T00:51:11.415Z,38.80
2023-01-27T00:53:38.047Z,36.10
2023-01-27T00:56:05.326Z,36.97
2023-01-27T00:58:32.083Z,34.80
2023-01-27T01:01:01.069Z,36.00
2023-01-27T01:03:32.705Z,34.22
2023-01-27T01:06:00.784Z,35.25
2023-01-27T01:08:27.735Z,34.42
2023-01-27T01:10:54.398Z,32.38
2023-01-27T01:13:21.708Z,35.90
2023-01-27T01:15:48.563Z,34.17
2023-01-27T01:18:15.970Z,29.95
2023-01-27T01:20:45.845Z,32.90
2023-01-27T01:23:15.105Z,31.80
2023-01-27T01:25:42.421Z,28.90
2023-01-27T01:28:09.510Z,31.63
2023-01-27T01:30:37.281Z,28.35
2023-01-27T01:33:04.121Z,30.25
2023-01-27T01:35:31.073Z,28.20
2023-01-27T01:37:57.622Z,27.23
2023-01-27T01:40:25.824Z,29.67
2023-01-27T01:42:57.365Z,29.75
2023-01-27T01:45:36.675Z,26.60
2023-01-27T01:48:09.302Z,26.88
2023-01-27T01:50:37.660Z,26.60
2023-01-27T01:53:06.704Z,25.52
2023-01-27T01:55:35.329Z,26.50
2023-01-27T01:58:03.005Z,25.15
2023-01-27T02:00:29.629Z,22.92
2023-01-27T02:02:56.432Z,23.58
2023-01-27T02:05:29.379Z,25.98
2023-01-27T02:08:02.730Z,25.57
2023-01-27T02:10:29.559Z,23.08
2023-01-27T02:12:56.372Z,23.13
2023-01-27T02:15:23.010Z,22.58
2023-01-27T02:17:50.205Z,23.20
2023-01-27T02:20:53.265Z,21.88
2023-01-27T02:23:56.766Z,20.42
2023-01-27T02:26:36.955Z,19.23
2023-01-27T02:29:08.039Z,20.48
2023-01-27T02:31:35.281Z,21.38
2023-01-27T02:34:09.245Z,21.17
2023-01-27T02:36:42.052Z,16.27
2023-01-27T02:39:09.541Z,18.60
2023-01-27T02:41:49.631Z,19.98
2023-01-27T02:44:16.143Z,19.55
2023-01-27T02:46:43.463Z,18.38
2023-01-27T02:49:10.028Z,19.58
2023-01-27T02:51:36.648Z,19.27
2023-01-27T02:54:03.213Z,17.40
2023-01-27T02:56:29.714Z,18.00
2023-01-27T02:58:56.431Z,17.40
2023-01-27T03:01:24.916Z,17.33
2023-01-27T03:03:52.467Z,15.55
2023-01-27T03:06:19.918Z,18.50
2023-01-27T03:08:46.478Z,16.13
2023-01-27T03:11:13.027Z,16.08
2023-01-27T03:13:39.646Z,16.23
2023-01-27T03:16:25.437Z,15.20
2023-01-27T03:18:53.695Z,15.75
2023-01-27T03:21:20.296Z,13.15
2023-01-27T03:23:49.190Z,13.10
2023-01-27T03:26:16.161Z,15.85
2023-01-27T03:28:42.977Z,13.18
2023-01-27T03:31:19.768Z,13.57
2023-01-27T03:33:47.785Z,11.98
2023-01-27T03:36:34.481Z,13.75
2023-01-27T03:39:19.465Z,12.50
2023-01-27T03:42:04.344Z,13.10
2023-01-27T03:44:49.440Z,11.48
2023-01-27T03:47:15.957Z,10.63
2023-01-27T03:49:42.527Z,11.18
2023-01-27T03:52:09.017Z,12.15
2023-01-27T03:54:35.560Z,10.38
2023-01-27T03:57:05.891Z,10.05
2023-01-27T03:59:32.937Z,10.32
2023-01-27T04:02:18.937Z,12.93
2023-01-27T04:05:04.383Z,8.75
2023-01-27T04:07:30.969Z,9.52
2023-01-27T04:09:57.463Z,10.93
2023-01-27T04:12:24.169Z,10.88
2023-01-27T04:14:50.676Z,9.65
2023-01-27T04:17:19.260Z,9.10
2023-01-27T04:19:46.773Z,12.05
2023-01-27T04:22:15.605Z,8.40
2023-01-27T04:24:42.447Z,8.10
2023-01-27T04:27:13.847Z,7.78
2023-01-27T04:29:42.124Z,10.15
2023-01-27T04:32:10.506Z,7.57
2023-01-27T04:34:37.427Z,8.27
2023-01-27T04:37:05.624Z,8.25
2023-01-27T04:39:32.395Z,7.95
2023-01-27T04:41:58.916Z,6.88
2023-01-27T04:44:25.721Z,6.28
2023-01-27T04:46:54.013Z,6.80
2023-01-27T04:49:20.682Z,6.28
2023-01-27T04:51:47.554Z,6.80
2023-01-27T04:54:14.441Z,7.82
2023-01-27T04:56:53.535Z,6.90
2023-01-27T04:59:20.087Z,6.80
2023-01-27T05:01:46.667Z,5.80
2023-01-27T05:04:13.228Z,6.13
2023-01-27T05:06:39.732Z,5.88
2023-01-27T05:09:06.288Z,5.38
2023-01-27T05:11:32.808Z,5.60
2023-01-27T05:13:59.309Z,5.25
2023-01-27T05:16:27.504Z,5.50
2023-01-27T05:18:54.262Z,6.07
2023-01-27T05:21:24.084Z,4.03
2023-01-27T05:23:51.339Z,4.90
2023-01-27T05:26:23.845Z,6.53
2023-01-27T05:28:52.227Z,4.78
2023-01-27T05:31:21.999Z,6.20
2023-01-27T05:33:53.808Z,4.53
2023-01-27T05:36:23.300Z,5.07
2023-01-27T05:38:49.808Z,3.85
2023-01-27T05:41:17.789Z,4.55
2023-01-27T05:43:46.336Z,5.43
2023-01-27T05:46:21.155Z,5.82
2023-01-27T05:48:55.951Z,4.18
2023-01-27T05:51:24.406Z,4.13
2023-01-27T05:53:51.413Z,4.15
2023-01-27T05:56:19.474Z,4.68
2023-01-27T05:58:46.441Z,4.47
2023-01-27T06:01:14.000Z,5.40
2023-01-27T06:03:41.430Z,4.93
2023-01-27T06:06:09.626Z,3.35
2023-01-27T06:08:36.890Z,3.47
2023-01-27T06:11:04.349Z,5.30
2023-01-27T06:13:31.429Z,3.67
2023-01-27T06:15:58.103Z,2.80
2023-01-27T06:18:24.645Z,3.45
2023-01-27T06:20:51.182Z,3.88
2023-01-27T06:23:18.076Z,3.17
2023-01-27T06:25:47.755Z,3.28
2023-01-27T06:28:28.134Z,3.60
2023-01-27T06:30:55.967Z,5.00
2023-01-27T06:33:22.634Z,2.42
2023-01-27T06:35:49.352Z,2.92
2023-01-27T06:38:15.870Z,3.53
2023-01-27T06:40:43.142Z,3.40
2023-01-27T06:43:14.746Z,2.42
2023-01-27T06:45:41.518Z,3.65
2023-01-27T06:48:08.735Z,2.15
2023-01-27T06:50:36.835Z,2.17
2023-01-27T06:53:06.785Z,2.70
2023-01-27T06:55:34.885Z,3.13
2023-01-27T06:58:02.541Z,2.45
2023-01-27T07:00:29.106Z,2.72
2023-01-27T07:02:56.608Z,2.50
2023-01-27T07:05:24.151Z,2.97
2023-01-27T07:07:50.660Z,2.90
2023-01-27T07:10:17.525Z,1.65
2023-01-27T07:12:44.032Z,2.05
2023-01-27T07:15:11.403Z,1.88
2023-01-27T07:17:38.243Z,1.95
2023-01-27T07:20:07.081Z,2.10
2023-01-27T07:22:33.630Z,1.80
2023-01-27T07:25:00.128Z,2.20
2023-01-27T07:27:26.696Z,2.17
2023-01-27T07:29:53.253Z,2.17
2023-01-27T07:32:19.765Z,2.28
2023-01-27T07:34:46.424Z,2.05
2023-01-27T07:37:13.620Z,2.47
2023-01-27T07:39:40.125Z,1.55
2023-01-27T07:42:06.832Z,1.67
2023-01-27T07:44:33.459Z,1.90
2023-01-27T07:47:00.185Z,1.35
2023-01-27T07:49:27.591Z,2.35
2023-01-27T07:51:54.394Z,1.25
2023-01-27T07:54:20.935Z,2.47
2023-01-27T07:56:47.493Z,1.80
2023-01-27T07:59:14.567Z,1.77
2023-01-27T08:01:41.917Z,2.67
2023-01-27T08:04:08.704Z,2.08
2023-01-27T08:06:38.164Z,2.20
2023-01-27T08:09:04.696Z,3.35
2023-01-27T08:11:31.480Z,3.13
2023-01-27T08:13:58.035Z,3.70
2023-01-27T08:16:24.571Z,3.25
2023-01-27T08:18:53.752Z,4.00
2023-01-27T08:21:20.864Z,4.93
2023-01-27T08:23:47.512Z,3.97
2023-01-27T08:26:14.180Z,4.95
2023-01-27T08:28:41.008Z,3.90
2023-01-27T08:31:15.936Z,5.25
2023-01-27T08:33:44.930Z,4.63
2023-01-27T08:36:16.448Z,8.23
2023-01-27T08:38:44.712Z,8.52
2023-01-27T08:41:20.969Z,7.63
2023-01-27T08:43:48.231Z,9.57
2023-01-27T08:46:15.665Z,10.23
2023-01-27T08:48:42.764Z,11.35
2023-01-27T08:51:11.262Z,13.55
2023-01-27T08:53:37.754Z,14.13
2023-01-27T08:56:07.303Z,13.90
2023-01-27T08:58:34.504Z,14.57
2023-01-27T09:01:02.616Z,14.45
2023-01-27T09:03:30.553Z,13.18
2023-01-27T09:05:57.796Z,12.75
2023-01-27T09:08:24.755Z,16.27
2023-01-27T09:10:51.582Z,17.02
2023-01-27T09:13:18.780Z,19.95
2023-01-27T09:15:46.325Z,19.75
2023-01-27T09:18:12.910Z,18.88
2023-01-27T09:20:39.496Z,18.73
2023-01-27T09:23:06.209Z,20.50
2023-01-27T09:25:32.701Z,20.15
2023-01-27T09:28:00.429Z,21.05
2023-01-27T09:30:28.263Z,22.80
2023-01-27T09:33:01.688Z,20.58
2023-01-27T09:35:37.970Z,25.92
2023-01-27T09:38:06.742Z,24.00
2023-01-27T09:40:55.831Z,23.75
2023-01-27T09:43:56.624Z,85.82
2023-01-27T09:46:38.371Z,106.25
2023-01-27T09:49:14.679Z,98.65
2023-01-27T09:52:02.650Z,100.63
2023-01-27T09:54:57.656Z,111.15
2023-01-27T09:57:44.963Z,108.32
2023-01-27T10:00:29.737Z,104.93
2023-01-27T10:02:59.155Z,102.45
2023-01-27T10:05:43.577Z,102.03
2023-01-27T10:08:37.588Z,99.47
2023-01-27T10:11:28.447Z,96.20
2023-01-27T10:14:09.205Z,100.15
2023-01-27T10:16:52.071Z,90.40
2023-01-27T10:19:37.149Z,93.97
2023-01-27T10:22:15.767Z,91.85
2023-01-27T10:24:49.301Z,95.65
2023-01-27T10:27:20.572Z,102.70
2023-01-27T10:30:08.405Z,103.68
2023-01-27T10:32:43.384Z,107.47
2023-01-27T10:35:27.742Z,104.22
2023-01-27T10:38:06.594Z,107.50
2023-01-27T10:40:36.174Z,107.05
2023-01-27T10:43:34.996Z,101.88
2023-01-27T10:46:36.292Z,102.63
2023-01-27T10:49:24.325Z,95.78
2023-01-27T10:52:05.659Z,92.40
2023-01-27T10:54:44.684Z,99.68
2023-01-27T10:57:30.674Z,100.18
2023-01-27T11:03:38.212Z,91.32
2023-01-27T11:06:11.236Z,87.28
2023-01-27T11:08:41.911Z,91.93
2023-01-27T11:11:28.788Z,85.88
2023-01-27T11:14:04.698Z,87.28
2023-01-27T11:16:38.731Z,88.45
2023-01-27T11:19:23.879Z,90.70
2023-01-27T11:22:06.785Z,87.03
2023-01-27T11:27:14.012Z,84.97
2023-01-27T11:29:49.211Z,77.50
2023-01-27T11:32:33.733Z,82.00
2023-01-27T11:35:03.977Z,74.07
2023-01-27T11:37:47.601Z,76.30
2023-01-27T11:40:28.052Z,71.95
2023-01-27T11:42:58.168Z,73.88
2023-01-27T11:45:26.014Z,68.05
2023-01-27T11:47:59.060Z,73.75
2023-01-27T11:50:31.922Z,74.57
2023-01-27T11:53:16.710Z,75.60
2023-01-27T11:55:48.784Z,71.68
2023-01-27T11:58:24.941Z,72.25
2023-01-27T12:01:01.836Z,77.93
2023-01-27T12:03:53.273Z,77.13
2023-01-27T12:06:40.910Z,78.43
2023-01-27T12:09:27.386Z,71.60
2023-01-27T12:12:11.199Z,74.15
2023-01-27T12:14:38.026Z,74.80
2023-01-27T12:17:07.755Z,73.72
2023-01-27T12:19:56.669Z,72.22
2023-01-27T12:22:34.077Z,69.53
2023-01-27T12:25:04.152Z,68.88
2023-01-27T12:27:37.024Z,71.00
2023-01-27T12:30:08.179Z,75.87
2023-01-27T12:32:40.541Z,84.13
2023-01-27T12:35:35.883Z,91.13
2023-01-27T12:38:07.186Z,95.55
2023-01-27T12:40:34.573Z,105.78
2023-01-27T12:43:13.592Z,106.03
2023-01-27T12:45:41.181Z,102.03
2023-01-27T12:48:07.662Z,112.43
2023-01-27T12:50:38.619Z,114.63
2023-01-27T12:53:16.059Z,112.32
2023-01-27T12:56:08.892Z,111.90
2023-01-27T12:58:58.285Z,112.20
2023-01-27T13:01:32.141Z,115.50
2023-01-27T13:04:27.107Z,115.80
2023-01-27T13:07:08.734Z,112.97
2023-01-27T13:09:48.470Z,107.82
2023-01-27T13:12:28.394Z,108.47
2023-01-27T13:15:06.141Z,106.43
2023-01-27T13:17:35.351Z,104.40
2023-01-27T13:20:08.444Z,109.57
2023-01-27T13:22:43.769Z,113.15
2023-01-27T13:25:19.098Z,106.00
2023-01-27T13:27:48.775Z,109.60
2023-01-27T13:30:31.774Z,115.15
2023-01-27T13:33:04.214Z,112.55
2023-01-27T13:35:41.799Z,107.00
2023-01-27T13:38:37.837Z,105.97
2023-01-27T13:41:15.548Z,113.65
2023-01-27T13:43:57.017Z,109.00
2023-01-27T13:46:31.578Z,102.80
2023-01-27T13:49:17.111Z,103.82
2023-01-27T13:51:43.626Z,100.38
2023-01-27T13:54:13.538Z,103.07
2023-01-27T13:57:13.548Z,93.85
2023-01-27T13:59:44.013Z,95.93
2023-01-27T14:02:45.235Z,87.65
2023-01-27T14:05:11.687Z,87.45
2023-01-27T14:07:48.628Z,81.68
2023-01-27T14:10:20.987Z,85.18
2023-01-27T14:13:15.014Z,85.43
2023-01-27T14:15:50.485Z,76.78
2023-01-27T14:18:22.057Z,78.80
2023-01-27T14:20:48.760Z,83.25
2023-01-27T14:23:38.914Z,74.80
2023-01-27T14:26:25.745Z,70.68
2023-01-27T14:29:01.316Z,72.82
2023-01-27T14:31:37.249Z,71.10
2023-01-27T14:34:09.844Z,72.03
2023-01-27T14:36:43.013Z,67.50
2023-01-27T14:39:25.269Z,67.90
2023-01-27T14:41:57.555Z,71.40
2023-01-27T14:44:44.228Z,71.85
2023-01-27T14:47:31.322Z,77.75
2023-01-27T14:50:06.678Z,74.10
2023-01-27T14:52:37.391Z,76.55
2023-01-27T14:55:28.394Z,74.35
2023-01-27T14:58:16.500Z,71.20
2023-01-27T15:00:45.918Z,73.20
2023-01-27T15:03:32.828Z,73.80
2023-01-27T15:06:14.557Z,72.28
2023-01-27T15:08:57.727Z,70.90
2023-01-27T15:12:01.785Z,72.40
2023-01-27T15:14:49.292Z,69.30
2023-01-27T15:17:49.654Z,68.28
2023-01-27T15:20:30.600Z,68.00
2023-01-27T15:23:19.350Z,71.68
2023-01-27T15:26:06.631Z,64.82
2023-01-27T15:28:38.407Z,63.90
2023-01-27T15:31:16.701Z,61.85
2023-01-27T15:33:55.154Z,66.38
2023-01-27T15:36:27.783Z,64.55
2023-01-27T15:39:09.345Z,60.35
2023-01-27T15:41:53.152Z,60.15
2023-01-27T15:44:30.680Z,60.88
2023-01-27T15:47:14.994Z,58.97
2023-01-27T15:49:48.316Z,57.22
2023-01-27T15:52:45.057Z,55.17
2023-01-27T15:55:27.570Z,55.85
2023-01-27T15:58:22.392Z,54.70
2023-01-27T16:00:51.516Z,54.40
2023-01-27T16:03:33.216Z,53.53
2023-01-27T16:06:09.781Z,53.10
2023-01-27T16:08:44.843Z,50.63
2023-01-27T16:11:29.519Z,49.60
2023-01-27T16:14:11.176Z,51.35
2023-01-27T16:16:58.386Z,48.70
2023-01-27T16:19:34.423Z,50.53
2023-01-27T16:22:05.323Z,47.65
2023-01-27T16:24:56.121Z,47.42
2023-01-27T16:27:36.324Z,46.60
2023-01-27T16:30:18.297Z,47.78
2023-01-27T16:33:06.309Z,48.78
2023-01-27T16:35:58.402Z,44.45
2023-01-27T16:38:31.770Z,42.85
2023-01-27T16:41:09.201Z,44.03
2023-01-27T16:43:49.775Z,45.03
2023-01-27T16:46:31.549Z,43.17
2023-01-27T16:48:59.638Z,43.00
2023-01-27T16:51:29.528Z,40.83
2023-01-27T16:54:00.267Z,39.83
2023-01-27T16:56:35.418Z,37.10
2023-01-27T16:59:06.160Z,40.53
2023-01-27T17:01:47.606Z,36.08
2023-01-27T17:04:20.598Z,41.15
2023-01-27T17:06:48.820Z,40.33
2023-01-27T17:09:41.711Z,39.88
2023-01-27T17:12:39.688Z,41.80
2023-01-27T17:15:29.070Z,40.25
2023-01-27T17:17:57.684Z,38.70
2023-01-27T17:20:29.802Z,38.65
2023-01-27T17:22:56.690Z,36.92
2023-01-27T17:25:34.664Z,37.30
2023-01-27T17:28:04.449Z,41.63
2023-01-27T17:30:39.419Z,40.08
2023-01-27T17:33:08.362Z,38.85
2023-01-27T17:35:39.766Z,39.88
2023-01-27T17:38:24.713Z,38.22
2023-01-27T17:40:53.820Z,39.55
2023-01-27T17:43:37.562Z,38.28
2023-01-27T17:46:18.979Z,37.13
2023-01-27T17:49:03.319Z,36.90
2023-01-27T17:51:40.717Z,35.42
2023-01-27T17:54:23.077Z,39.25
2023-01-27T17:56:56.631Z,34.85
2023-01-27T17:59:26.615Z,34.97
2023-01-27T18:01:55.215Z,37.97
2023-01-27T18:04:24.049Z,37.28
2023-01-27T18:06:51.700Z,38.58
2023-01-27T18:09:25.429Z,36.30
2023-01-27T18:14:21.347Z,36.65
2023-01-27T18:17:01.140Z,32.13
2023-01-27T18:19:27.928Z,33.00
2023-01-27T18:22:20.729Z,38.25
2023-01-27T18:24:50.350Z,33.35
2023-01-27T18:27:21.845Z,34.00
2023-01-27T18:29:52.999Z,36.70
2023-01-27T18:32:24.380Z,33.95
2023-01-27T18:34:56.745Z,35.42
2023-01-27T18:37:36.227Z,33.10
2023-01-27T18:40:24.354Z,36.13
2023-01-27T18:42:55.100Z,35.08
2023-01-27T18:45:21.787Z,31.52
2023-01-27T18:47:48.363Z,31.70
2023-01-27T18:50:21.883Z,31.65
2023-01-27T18:52:49.701Z,31.23
2023-01-27T18:55:30.197Z,33.47
2023-01-27T18:57:59.091Z,28.70
2023-01-27T19:00:37.845Z,29.95
2023-01-27T19:03:11.659Z,29.88
2023-01-27T19:05:38.246Z,29.17
2023-01-27T19:08:05.065Z,29.55
2023-01-27T19:10:34.235Z,30.02
2023-01-27T19:13:02.566Z,31.77
2023-01-27T19:15:33.286Z,30.08
2023-01-27T19:18:03.033Z,29.58
2023-01-27T19:20:30.936Z,27.15
2023-01-27T19:22:58.697Z,29.92
2023-01-27T19:25:29.331Z,29.48
2023-01-27T19:28:01.458Z,27.17
2023-01-27T19:30:32.699Z,28.83
2023-01-27T19:32:59.345Z,26.83
2023-01-27T19:35:28.552Z,27.25
2023-01-27T19:37:56.313Z,26.75
2023-01-27T19:40:26.352Z,26.10
2023-01-27T19:42:53.213Z,26.83
2023-01-27T19:45:21.277Z,25.38
2023-01-27T19:47:49.543Z,25.65
2023-01-27T19:50:25.185Z,26.95
2023-01-27T19:52:52.240Z,24.08
2023-01-27T19:55:20.734Z,24.92
2023-01-27T19:57:48.719Z,27.02
2023-01-27T20:00:28.865Z,25.80
2023-01-27T20:02:56.368Z,24.73
2023-01-27T20:05:24.430Z,25.80
2023-01-27T20:07:51.775Z,25.15
2023-01-27T20:10:25.412Z,23.77
2023-01-27T20:12:54.568Z,23.88
2023-01-27T20:15:24.233Z,26.05
2023-01-27T20:17:52.356Z,23.08
2023-01-27T20:20:19.470Z,23.08
2023-01-27T20:22:46.193Z,23.17
2023-01-27T20:25:15.176Z,20.98
2023-01-27T20:27:43.300Z,23.30
2023-01-27T20:30:34.017Z,22.92
2023-01-27T20:33:02.191Z,23.65
2023-01-27T20:35:29.249Z,25.77
2023-01-27T20:37:56.048Z,24.38
2023-01-27T20:40:24.899Z,23.52
2023-01-27T20:42:52.262Z,23.90
2023-01-27T20:45:19.334Z,24.83
2023-01-27T20:47:50.819Z,23.45
2023-01-27T20:50:17.797Z,22.85
2023-01-27T20:52:44.894Z,22.85
2023-01-27T20:55:13.373Z,22.30
2023-01-27T20:57:40.067Z,25.20
2023-01-27T21:00:07.662Z,23.58
2023-01-27T21:02:34.399Z,26.70
2023-01-27T21:05:00.960Z,23.52
2023-01-27T21:07:27.587Z,24.20
2023-01-27T21:09:55.065Z,23.40
2023-01-27T21:12:21.652Z,22.67
2023-01-27T21:14:48.426Z,21.33
2023-01-27T21:17:15.316Z,23.77
2023-01-27T21:19:41.867Z,23.92
2023-01-27T21:22:08.426Z,23.88
2023-01-27T21:24:35.627Z,24.98
2023-01-27T21:27:02.285Z,26.45
2023-01-27T21:29:28.853Z,22.67
2023-01-27T21:31:55.600Z,24.58
2023-01-27T21:34:22.864Z,23.15
2023-01-27T21:36:49.499Z,23.83
2023-01-27T21:39:16.279Z,25.05
2023-01-27T21:41:55.127Z,21.55
2023-01-27T21:44:42.357Z,24.50
2023-01-27T21:47:14.097Z,21.75
2023-01-27T21:50:00.692Z,24.67
2023-01-27T21:52:49.241Z,22.65
2023-01-27T21:55:22.113Z,22.90
2023-01-27T21:57:50.900Z,21.17
2023-01-27T22:00:20.164Z,23.45
2023-01-27T22:02:56.679Z,23.05
2023-01-27T22:05:23.439Z,21.75
2023-01-27T22:07:50.529Z,20.73
2023-01-27T22:10:19.756Z,22.48
2023-01-27T22:12:46.925Z,21.83
2023-01-27T22:15:16.749Z,21.25
2023-01-27T22:17:44.202Z,21.08
2023-01-27T22:20:17.770Z,22.85
2023-01-27T22:22:45.161Z,20.65
2023-01-27T22:25:15.173Z,22.45
2023-01-27T22:27:42.748Z,23.70
2023-01-27T22:30:13.538Z,23.85
2023-01-27T22:32:40.542Z,25.25
2023-01-27T22:35:07.694Z,23.27
2023-01-27T22:37:35.782Z,24.40
2023-01-27T22:40:02.365Z,23.73
2023-01-27T22:42:28.930Z,22.70
2023-01-27T22:44:55.458Z,24.20
2023-01-27T22:47:22.092Z,25.30
2023-01-27T22:49:48.605Z,22.27
2023-01-27T22:52:16.617Z,24.60
2023-01-27T22:54:43.781Z,24.42
2023-01-27T22:57:10.343Z,26.67
2023-01-27T22:59:36.880Z,24.65
2023-01-27T23:02:03.561Z,24.73
2023-01-27T23:04:30.045Z,23.63
2023-01-27T23:06:56.543Z,23.00
2023-01-27T23:09:23.017Z,23.45
2023-01-27T23:11:49.541Z,24.05
2023-01-27T23:14:16.203Z,25.42
2023-01-27T23:16:42.760Z,23.33
2023-01-27T23:19:09.574Z,24.70
2023-01-27T23:21:36.420Z,22.48
2023-01-27T23:24:02.992Z,25.38
2023-01-27T23:26:29.634Z,24.83
2023-01-27T23:28:56.189Z,24.90
2023-01-27T23:31:22.721Z,24.25
2023-01-27T23:33:49.339Z,22.50
2023-01-27T23:36:15.886Z,21.23
2023-01-27T23:38:42.452Z,24.85
2023-01-27T23:41:18.392Z,24.52
2023-01-27T23:43:50.325Z,21.70
2023-01-27T23:46:16.877Z,22.83
2023-01-27T23:48:43.542Z,20.88
2023-01-27T23:51:13.176Z,21.05
2023-01-27T23:53:39.696Z,23.88
2023-01-27T23:56:06.808Z,21.38
2023-01-27T23:58:33.355Z,21.90
